createdAt,value
2023-05-08T00:00:14.120Z,95423.50
2023-05-08T00:02:42.991Z,95412.84
2023-05-08T00:05:11.055Z,95415.94
2023-05-08T00:07:39.224Z,95413.41
2023-05-08T00:10:10.776Z,95412.16
2023-05-08T00:12:38.904Z,95414.75
2023-05-08T00:15:07.949Z,95417.59
2023-05-08T00:17:35.770Z,95422.66
2023-05-08T00:20:03.805Z,95415.88
2023-05-08T00:22:31.562Z,95412.13
2023-05-08T00:24:59.425Z,95426.09
2023-05-08T00:27:28.582Z,95429.34
2023-05-08T00:29:56.554Z,95431.91
2023-05-08T00:32:24.557Z,95429.41
2023-05-08T00:34:52.474Z,95425.44
2023-05-08T00:37:20.277Z,95421.91
2023-05-08T00:39:48.084Z,95428.25
2023-05-08T00:42:17.823Z,95422.28
2023-05-08T00:44:47.084Z,95425.66
2023-05-08T00:47:15.468Z,95429.88
2023-05-08T00:49:44.141Z,95423.38
2023-05-08T00:52:13.260Z,95425.03
2023-05-08T00:54:42.137Z,95419.06
2023-05-08T00:57:09.989Z,95419.38
2023-05-08T00:59:38.568Z,95426.06
2023-05-08T01:02:08.178Z,95407.22
2023-05-08T01:04:37.738Z,95414.66
2023-05-08T01:07:05.769Z,95412.16
2023-05-08T01:09:33.762Z,95412.25
2023-05-08T01:12:11.574Z,95409.13
2023-05-08T01:14:51.940Z,95405.34
2023-05-08T01:17:28.337Z,95398.56
2023-05-08T01:20:06.913Z,95412.53
2023-05-08T01:23:10.276Z,95413.31
2023-05-08T01:26:17.609Z,95418.38
2023-05-08T01:29:27.709Z,95416.16
2023-05-08T01:32:20.144Z,95415.13
2023-05-08T01:34:55.171Z,95417.75
2023-05-08T01:37:31.579Z,95422.97
2023-05-08T01:40:08.932Z,95426.03
2023-05-08T01:42:45.418Z,95422.69
2023-05-08T01:45:18.211Z,95421.84
2023-05-08T01:47:52.798Z,95418.91
2023-05-08T01:50:27.030Z,95434.75
2023-05-08T01:52:59.723Z,95436.34
2023-05-08T01:55:31.607Z,95436.19
2023-05-08T01:58:00.680Z,95437.13
2023-05-08T02:00:29.294Z,95432.34
2023-05-08T02:03:01.865Z,95432.44
2023-05-08T02:05:30.288Z,95430.91
2023-05-08T02:07:59.737Z,95428.75
2023-05-08T02:10:29.200Z,95432.69
2023-05-08T02:12:58.117Z,95423.59
2023-05-08T02:15:28.680Z,95433.13
2023-05-08T02:17:57.458Z,95441.03
2023-05-08T02:20:28.808Z,95444.56
2023-05-08T02:22:57.937Z,95438.66
2023-05-08T02:25:26.975Z,95439.19
2023-05-08T02:27:56.521Z,95441.25
2023-05-08T02:30:27.422Z,95440.88
2023-05-08T02:33:00.402Z,95446.03
2023-05-08T02:35:32.266Z,95447.88
2023-05-08T02:38:01.701Z,95453.19
2023-05-08T02:40:31.089Z,95450.00
2023-05-08T02:42:59.027Z,95462.22
2023-05-08T02:45:33.797Z,95465.16
2023-05-08T02:48:10.175Z,95460.94
2023-05-08T02:50:52.146Z,95458.50
2023-05-08T02:53:26.268Z,95461.91
2023-05-08T02:55:58.037Z,95456.16
2023-05-08T02:58:32.386Z,95469.34
2023-05-08T03:01:06.489Z,95471.13
2023-05-08T03:03:40.761Z,95460.13
2023-05-08T03:06:14.672Z,95471.66
2023-05-08T03:08:44.347Z,95485.16
2023-05-08T03:11:16.122Z,95473.94
2023-05-08T03:13:48.639Z,95484.38
2023-05-08T03:16:21.692Z,95475.13
2023-05-08T03:18:54.610Z,95475.28
2023-05-08T03:21:28.223Z,95479.78
2023-05-08T03:23:58.428Z,95487.38
2023-05-08T03:26:27.301Z,95475.81
2023-05-08T03:28:56.356Z,95475.69
2023-05-08T03:31:29.372Z,95482.94
2023-05-08T03:33:57.879Z,95474.88
2023-05-08T03:36:28.822Z,95487.13
2023-05-08T03:38:56.805Z,95492.38
2023-05-08T03:41:26.494Z,95479.22
2023-05-08T03:43:56.033Z,95483.59
2023-05-08T03:46:25.044Z,95483.44
2023-05-08T03:48:54.270Z,95483.53
2023-05-08T03:51:23.604Z,95487.53
2023-05-08T03:53:53.682Z,95494.28
2023-05-08T03:56:22.083Z,95494.44
2023-05-08T03:58:58.138Z,95494.28
2023-05-08T04:01:33.227Z,95497.06
2023-05-08T04:04:19.368Z,95489.09
2023-05-08T04:06:52.172Z,95491.50
2023-05-08T04:09:32.444Z,95496.72
2023-05-08T04:12:06.199Z,95507.63
2023-05-08T04:14:40.952Z,95505.84
2023-05-08T04:17:11.767Z,95513.16
2023-05-08T04:19:43.888Z,95506.66
2023-05-08T04:22:13.877Z,95512.97
2023-05-08T04:24:46.551Z,95517.50
2023-05-08T04:27:15.143Z,95517.72
2023-05-08T04:29:43.475Z,95528.72
2023-05-08T04:32:12.071Z,95524.13
2023-05-08T04:34:40.816Z,95524.91
2023-05-08T04:37:08.913Z,95518.78
2023-05-08T04:39:37.055Z,95523.47
2023-05-08T04:42:06.551Z,95527.75
2023-05-08T04:44:36.272Z,95533.44
2023-05-08T04:47:04.195Z,95533.41
2023-05-08T04:49:32.192Z,95532.13
2023-05-08T04:52:00.055Z,95536.09
2023-05-08T04:54:27.908Z,95540.28
2023-05-08T04:56:55.668Z,95542.94
2023-05-08T04:59:25.873Z,95536.56
2023-05-08T05:01:53.742Z,95549.97
2023-05-08T05:04:22.868Z,95545.91
2023-05-08T05:06:50.676Z,95545.19
2023-05-08T05:09:18.684Z,95544.63
2023-05-08T05:11:46.759Z,95550.31
2023-05-08T05:14:14.602Z,95550.31
2023-05-08T05:16:43.801Z,95550.38
2023-05-08T05:19:11.979Z,95548.16
2023-05-08T05:21:40.554Z,95551.47
2023-05-08T05:24:08.654Z,95548.00
2023-05-08T05:26:37.351Z,95551.31
2023-05-08T05:29:05.716Z,95550.09
2023-05-08T05:31:33.992Z,95551.91
2023-05-08T05:34:03.346Z,95561.91
2023-05-08T05:36:31.386Z,95565.34
2023-05-08T05:38:59.209Z,95564.81
2023-05-08T05:41:27.039Z,95569.44
2023-05-08T05:43:54.898Z,95567.38
2023-05-08T05:46:28.079Z,95563.72
2023-05-08T05:48:56.032Z,95562.19
2023-05-08T05:51:25.215Z,95579.50
2023-05-08T05:53:53.112Z,95565.63
2023-05-08T05:56:21.583Z,95570.22
2023-05-08T05:58:49.470Z,95567.72
2023-05-08T06:01:17.539Z,95573.38
2023-05-08T06:03:45.431Z,95577.63
2023-05-08T06:06:13.625Z,95572.47
2023-05-08T06:08:42.891Z,95574.19
2023-05-08T06:11:10.735Z,95575.88
2023-05-08T06:13:40.542Z,95580.38
2023-05-08T06:16:09.285Z,95580.41
2023-05-08T06:18:37.224Z,95584.31
2023-05-08T06:21:05.355Z,95587.16
2023-05-08T06:23:33.136Z,95580.69
2023-05-08T06:26:02.359Z,95563.66
2023-05-08T06:28:30.243Z,95570.22
2023-05-08T06:30:58.148Z,95580.09
2023-05-08T06:33:27.140Z,95577.91
2023-05-08T06:35:54.992Z,95579.63
2023-05-08T06:38:22.903Z,95595.56
2023-05-08T06:40:50.779Z,95585.19
2023-05-08T06:43:19.955Z,95585.13
2023-05-08T06:45:47.780Z,95577.75
2023-05-08T06:48:15.800Z,95589.66
2023-05-08T06:50:43.591Z,95593.59
2023-05-08T06:53:11.477Z,95596.91
2023-05-08T06:55:39.225Z,95601.66
2023-05-08T06:58:07.093Z,95599.94
2023-05-08T07:00:36.364Z,95603.34
2023-05-08T07:03:04.268Z,95602.63
2023-05-08T07:05:32.089Z,95594.47
2023-05-08T07:07:59.839Z,95597.91
2023-05-08T07:10:27.606Z,95602.84
2023-05-08T07:12:55.403Z,95596.25
2023-05-08T07:15:26.539Z,95603.41
2023-05-08T07:17:56.161Z,95606.56
2023-05-08T07:20:24.441Z,95606.81
2023-05-08T07:22:52.459Z,95605.56
2023-05-08T07:25:20.612Z,95601.81
2023-05-08T07:27:48.431Z,95605.22
2023-05-08T07:30:16.673Z,95604.72
2023-05-08T07:32:44.509Z,95613.03
2023-05-08T07:35:13.877Z,95613.25
2023-05-08T07:37:41.871Z,95614.78
2023-05-08T07:40:10.114Z,95617.28
2023-05-08T07:42:42.131Z,95618.22
2023-05-08T07:45:11.788Z,95619.03
2023-05-08T07:47:39.977Z,95616.97
2023-05-08T07:50:08.481Z,95619.50
2023-05-08T07:52:37.584Z,95628.16
2023-05-08T07:55:06.263Z,95622.78
2023-05-08T07:57:37.889Z,95624.72
2023-05-08T08:00:06.876Z,95624.22
2023-05-08T08:02:41.426Z,95622.69
2023-05-08T08:05:10.045Z,95635.34
2023-05-08T08:07:39.288Z,95635.25
2023-05-08T08:10:08.757Z,95633.53
2023-05-08T08:12:36.867Z,95631.81
2023-05-08T08:15:05.285Z,95629.59
2023-05-08T08:17:33.129Z,95633.84
2023-05-08T08:20:01.134Z,95632.66
2023-05-08T08:22:28.978Z,95625.50
2023-05-08T08:24:58.146Z,95634.06
2023-05-08T08:27:26.565Z,95624.94
2023-05-08T08:30:04.539Z,95634.28
2023-05-08T08:32:40.409Z,95635.13
2023-05-08T08:35:09.223Z,95639.66
2023-05-08T08:37:37.133Z,95638.19
2023-05-08T08:40:07.786Z,95641.09
2023-05-08T08:42:35.608Z,95634.44
2023-05-08T08:45:03.664Z,95642.66
2023-05-08T08:47:37.480Z,95643.66
2023-05-08T08:50:06.341Z,95633.69
2023-05-08T08:52:42.086Z,95634.09
2023-05-08T08:55:16.457Z,95632.41
2023-05-08T08:57:53.750Z,95625.06
2023-05-08T09:00:23.411Z,95625.97
2023-05-08T09:02:51.678Z,95629.78
2023-05-08T09:05:19.761Z,95633.41
2023-05-08T09:07:48.728Z,95626.19
2023-05-08T09:10:18.320Z,95625.06
2023-05-08T09:12:46.150Z,95635.25
2023-05-08T09:15:14.220Z,95633.13
2023-05-08T09:17:42.389Z,95640.41
2023-05-08T09:20:11.845Z,95634.13
2023-05-08T09:22:40.012Z,95636.56
2023-05-08T09:25:08.704Z,95635.63
2023-05-08T09:27:38.388Z,95620.91
2023-05-08T09:30:07.921Z,95630.31
2023-05-08T09:32:36.945Z,95630.78
2023-05-08T09:35:06.429Z,95634.97
2023-05-08T09:37:39.901Z,95634.06
2023-05-08T09:40:18.532Z,95627.16
2023-05-08T09:42:48.680Z,95635.00
2023-05-08T09:45:31.040Z,95632.28
2023-05-08T09:47:59.179Z,95633.91
2023-05-08T09:50:27.712Z,95633.13
2023-05-08T09:52:55.779Z,95630.53
2023-05-08T09:55:23.708Z,95633.34
2023-05-08T09:57:57.889Z,95638.16
2023-05-08T10:00:26.725Z,95635.00
2023-05-08T10:02:59.594Z,95633.16
2023-05-08T10:05:30.090Z,95638.91
2023-05-08T10:07:58.513Z,95634.47
2023-05-08T10:10:27.796Z,95633.78
2023-05-08T10:12:59.346Z,95636.72
2023-05-08T10:15:30.906Z,95638.19
2023-05-08T10:18:05.286Z,95628.06
2023-05-08T10:20:34.775Z,95641.00
2023-05-08T10:23:04.320Z,95634.66
2023-05-08T10:25:34.253Z,95634.91
2023-05-08T10:28:11.750Z,95629.28
2023-05-08T10:30:44.640Z,95629.53
2023-05-08T10:33:15.784Z,95634.78
2023-05-08T10:35:44.326Z,95630.00
2023-05-08T10:38:12.727Z,95630.63
2023-05-08T10:40:40.836Z,95635.47
2023-05-08T10:43:11.285Z,95624.09
2023-05-08T10:45:40.161Z,95627.31
2023-05-08T10:48:17.445Z,95634.88
2023-05-08T10:51:02.273Z,95619.50
2023-05-08T10:53:38.050Z,95622.06
2023-05-08T10:56:06.736Z,95620.41
2023-05-08T10:58:39.194Z,95627.63
2023-05-08T11:01:17.801Z,95619.81
2023-05-08T11:03:47.657Z,95619.84
2023-05-08T11:06:16.322Z,95614.47
2023-05-08T11:08:52.108Z,95617.16
2023-05-08T11:11:29.253Z,95611.19
2023-05-08T11:14:10.760Z,95626.88
2023-05-08T11:17:07.947Z,95617.41
2023-05-08T11:19:37.158Z,95617.09
2023-05-08T11:22:26.029Z,95617.41
2023-05-08T11:24:59.097Z,95618.44
2023-05-08T11:27:39.798Z,95614.22
2023-05-08T11:30:23.235Z,95615.88
2023-05-08T11:33:14.489Z,95611.63
2023-05-08T11:35:44.260Z,95612.59
2023-05-08T11:38:20.797Z,95617.16
2023-05-08T11:40:50.396Z,95616.94
2023-05-08T11:43:27.104Z,95612.41
2023-05-08T11:46:01.858Z,95614.78
2023-05-08T11:48:29.913Z,95613.94
2023-05-08T11:50:58.026Z,95611.63
2023-05-08T11:53:31.286Z,95619.66
2023-05-08T11:56:00.585Z,95616.91
2023-05-08T11:58:28.543Z,95608.16
2023-05-08T12:00:58.047Z,95618.03
2023-05-08T12:03:26.614Z,95613.47
2023-05-08T12:06:00.196Z,95609.25
2023-05-08T12:08:28.417Z,95623.41
2023-05-08T12:10:58.775Z,95624.38
2023-05-08T12:13:28.162Z,95605.41
2023-05-08T12:16:01.908Z,95620.00
2023-05-08T12:18:30.876Z,95624.03
2023-05-08T12:21:00.803Z,95620.44
2023-05-08T12:23:29.989Z,95624.53
2023-05-08T12:26:02.876Z,95621.97
2023-05-08T12:28:32.308Z,95623.06
2023-05-08T12:31:01.823Z,95620.06
2023-05-08T12:33:30.512Z,95618.97
2023-05-08T12:35:58.904Z,95626.16
2023-05-08T12:38:27.862Z,95611.75
2023-05-08T12:40:56.640Z,95620.72
2023-05-08T12:43:33.013Z,95618.59
2023-05-08T12:46:02.813Z,95623.97
2023-05-08T12:48:31.285Z,95616.91
2023-05-08T12:51:04.244Z,95619.34
2023-05-08T12:53:33.957Z,95622.03
2023-05-08T12:56:04.538Z,95609.97
2023-05-08T12:58:33.888Z,95614.34
2023-05-08T13:01:12.940Z,95615.31
2023-05-08T13:03:42.028Z,95615.88
2023-05-08T13:06:21.032Z,95619.72
2023-05-08T13:08:54.650Z,95611.38
2023-05-08T13:11:30.654Z,95619.28
2023-05-08T13:13:58.532Z,95611.41
2023-05-08T13:16:27.839Z,95619.31
2023-05-08T13:18:55.668Z,95614.03
2023-05-08T13:21:25.133Z,95606.28
2023-05-08T13:23:54.318Z,95603.91
2023-05-08T13:26:24.398Z,95608.97
2023-05-08T13:28:54.069Z,95604.41
2023-05-08T13:31:23.981Z,95606.44
2023-05-08T13:33:53.468Z,95602.47
2023-05-08T13:36:21.515Z,95611.13
2023-05-08T13:38:51.336Z,95605.50
2023-05-08T13:41:19.257Z,95598.97
2023-05-08T13:43:48.129Z,95601.47
2023-05-08T13:46:16.090Z,95594.22
2023-05-08T13:48:43.956Z,95596.25
2023-05-08T13:51:13.137Z,95594.69
2023-05-08T13:53:40.991Z,95597.91
2023-05-08T13:56:08.957Z,95599.84
2023-05-08T13:58:36.797Z,95601.63
2023-05-08T14:01:17.456Z,95603.09
2023-05-08T14:03:46.024Z,95604.66
2023-05-08T14:06:15.309Z,95602.28
2023-05-08T14:08:46.465Z,95599.00
2023-05-08T14:11:15.605Z,95604.59
2023-05-08T14:13:43.390Z,95615.38
2023-05-08T14:16:12.938Z,95595.31
2023-05-08T14:18:40.934Z,95605.44
2023-05-08T14:21:08.806Z,95596.84
2023-05-08T14:23:38.812Z,95601.50
2023-05-08T14:26:06.692Z,95601.75
2023-05-08T14:28:34.584Z,95600.81
2023-05-08T14:31:02.564Z,95601.88
2023-05-08T14:33:30.605Z,95598.34
2023-05-08T14:35:59.560Z,95596.50
2023-05-08T14:38:27.390Z,95593.06
2023-05-08T14:40:56.669Z,95582.09
2023-05-08T14:43:24.487Z,95592.78
2023-05-08T14:45:52.330Z,95591.03
2023-05-08T14:48:20.240Z,95590.38
2023-05-08T14:50:51.192Z,95594.06
2023-05-08T14:53:19.156Z,95588.66
2023-05-08T14:55:47.307Z,95573.69
2023-05-08T14:58:16.771Z,95590.38
2023-05-08T15:00:44.678Z,95598.38
2023-05-08T15:03:12.684Z,95597.34
2023-05-08T15:05:40.670Z,95605.44
2023-05-08T15:08:09.684Z,95605.59
2023-05-08T15:10:37.721Z,95596.13
2023-05-08T15:13:05.796Z,95603.19
2023-05-08T15:15:34.987Z,95602.84
2023-05-08T15:18:02.857Z,95595.78
2023-05-08T15:20:30.735Z,95593.81
2023-05-08T15:22:58.532Z,95603.22
2023-05-08T15:25:26.556Z,95601.19
2023-05-08T15:27:54.386Z,95596.09
2023-05-08T15:30:22.772Z,95604.94
2023-05-08T15:32:52.765Z,95612.69
2023-05-08T15:35:20.636Z,95610.56
2023-05-08T15:37:48.444Z,95606.72
2023-05-08T15:40:16.675Z,95597.41
2023-05-08T15:42:44.465Z,95602.44
2023-05-08T15:45:12.696Z,95606.59
2023-05-08T15:47:40.661Z,95594.97
2023-05-08T15:50:10.675Z,95596.81
2023-05-08T15:52:38.581Z,95593.53
2023-05-08T15:55:07.131Z,95593.91
2023-05-08T15:57:35.053Z,95587.53
2023-05-08T16:00:05.789Z,95589.81
2023-05-08T16:02:33.725Z,95583.28
2023-05-08T16:05:01.636Z,95592.69
2023-05-08T16:07:30.794Z,95591.75
2023-05-08T16:09:58.584Z,95584.56
2023-05-08T16:12:26.585Z,95592.16
2023-05-08T16:14:54.468Z,95584.81
2023-05-08T16:17:22.368Z,95591.00
2023-05-08T16:19:50.458Z,95591.38
2023-05-08T16:22:18.260Z,95588.56
2023-05-08T16:24:47.505Z,95584.63
2023-05-08T16:27:15.792Z,95588.69
2023-05-08T16:29:43.693Z,95588.34
2023-05-08T16:32:11.778Z,95584.97
2023-05-08T16:34:39.824Z,95585.00
2023-05-08T16:37:07.821Z,95583.19
2023-05-08T16:39:36.023Z,95587.59
2023-05-08T16:42:06.298Z,95581.28
2023-05-08T16:44:34.572Z,95588.75
2023-05-08T16:47:02.928Z,95582.56
2023-05-08T16:49:30.985Z,95575.31
2023-05-08T16:52:00.439Z,95578.59
2023-05-08T16:54:28.639Z,95580.69
2023-05-08T16:56:56.564Z,95579.91
2023-05-08T16:59:26.044Z,95589.03
2023-05-08T17:01:56.935Z,95588.03
2023-05-08T17:04:30.721Z,95599.97
2023-05-08T17:07:00.006Z,95603.91
2023-05-08T17:09:28.562Z,95596.41
2023-05-08T17:11:58.198Z,95607.31
2023-05-08T17:14:27.660Z,95609.66
2023-05-08T17:16:55.494Z,95604.00
2023-05-08T17:19:23.330Z,95615.94
2023-05-08T17:21:51.258Z,95603.78
2023-05-08T17:24:19.592Z,95617.03
2023-05-08T17:26:47.388Z,95610.97
2023-05-08T17:29:15.150Z,95618.94
2023-05-08T17:31:44.601Z,95612.88
2023-05-08T17:34:12.503Z,95615.81
2023-05-08T17:36:40.561Z,95619.44
2023-05-08T17:39:08.439Z,95620.03
2023-05-08T17:41:36.290Z,95620.72
2023-05-08T17:44:04.580Z,95620.56
2023-05-08T17:46:32.405Z,95622.00
2023-05-08T17:49:01.626Z,95621.56
2023-05-08T17:51:29.545Z,95627.66
2023-05-08T17:53:57.462Z,95629.25
2023-05-08T17:56:25.768Z,95639.13
2023-05-08T17:58:55.370Z,95638.88
2023-05-08T18:01:23.317Z,95640.03
2023-05-08T18:03:51.239Z,95640.84
2023-05-08T18:06:20.714Z,95639.13
2023-05-08T18:08:48.941Z,95642.22
2023-05-08T18:11:17.955Z,95651.91
2023-05-08T18:13:45.870Z,95636.66
2023-05-08T18:16:15.803Z,95644.44
2023-05-08T18:18:43.726Z,95639.31
2023-05-08T18:21:11.714Z,95653.63
2023-05-08T18:23:41.850Z,95644.75
2023-05-08T18:26:13.567Z,95649.97
2023-05-08T18:28:41.323Z,95654.06
2023-05-08T18:31:09.194Z,95653.25
2023-05-08T18:33:37.391Z,95650.50
2023-05-08T18:36:06.884Z,95648.91
2023-05-08T18:38:35.628Z,95649.38
2023-05-08T18:41:06.169Z,95665.75
2023-05-08T18:43:34.682Z,95653.28
2023-05-08T18:46:09.410Z,95648.53
2023-05-08T18:48:37.388Z,95656.84
2023-05-08T18:51:06.311Z,95646.94
2023-05-08T18:53:38.096Z,95650.72
2023-05-08T18:56:07.776Z,95652.94
2023-05-08T18:58:35.681Z,95659.28
2023-05-08T19:01:03.729Z,95660.16
2023-05-08T19:03:31.865Z,95660.94
2023-05-08T19:06:00.019Z,95652.41
2023-05-08T19:08:28.037Z,95663.72
2023-05-08T19:10:56.406Z,95654.41
2023-05-08T19:13:25.981Z,95653.81
2023-05-08T19:15:57.246Z,95644.94
2023-05-08T19:18:25.204Z,95657.63
2023-05-08T19:20:53.291Z,95664.38
2023-05-08T19:23:21.246Z,95660.03
2023-05-08T19:25:49.064Z,95661.66
2023-05-08T19:28:17.041Z,95654.34
2023-05-08T19:30:46.298Z,95649.19
2023-05-08T19:33:14.242Z,95656.94
2023-05-08T19:35:42.091Z,95646.50
2023-05-08T19:38:09.888Z,95656.00
2023-05-08T19:40:48.301Z,95656.22
2023-05-08T19:43:24.134Z,95655.44
2023-05-08T19:45:53.702Z,95652.91
2023-05-08T19:48:21.772Z,95650.75
2023-05-08T19:50:50.582Z,95656.91
2023-05-08T19:53:19.801Z,95655.13
2023-05-08T19:55:49.270Z,95663.66
2023-05-08T19:58:18.578Z,95664.25
2023-05-08T20:00:51.034Z,95647.97
2023-05-08T20:03:21.119Z,95655.72
2023-05-08T20:05:49.438Z,95663.84
2023-05-08T20:08:17.518Z,95669.78
2023-05-08T20:10:49.050Z,95665.44
2023-05-08T20:13:16.975Z,95667.22
2023-05-08T20:15:44.921Z,95667.22
2023-05-08T20:18:12.814Z,95668.03
2023-05-08T20:20:41.929Z,95663.69
2023-05-08T20:23:10.378Z,95670.25
2023-05-08T20:25:38.170Z,95664.91
2023-05-08T20:28:05.955Z,95663.69
2023-05-08T20:30:33.795Z,95653.41
2023-05-08T20:33:04.843Z,95663.91
2023-05-08T20:35:33.054Z,95670.63
2023-05-08T20:38:02.241Z,95660.72
2023-05-08T20:40:30.045Z,95654.38
2023-05-08T20:42:57.843Z,95653.41
2023-05-08T20:45:25.905Z,95653.03
2023-05-08T20:47:53.754Z,95657.78
2023-05-08T20:50:21.643Z,95651.25
2023-05-08T20:52:49.732Z,95649.28
2023-05-08T20:55:19.485Z,95647.50
2023-05-08T20:57:47.282Z,95639.00
2023-05-08T21:00:39.944Z,95647.31
2023-05-08T21:03:07.840Z,95639.56
2023-05-08T21:05:35.657Z,95635.00
2023-05-08T21:08:06.091Z,95632.00
2023-05-08T21:10:35.256Z,95627.47
2023-05-08T21:13:03.577Z,95634.00
2023-05-08T21:15:31.538Z,95627.06
2023-05-08T21:17:59.371Z,95631.03
2023-05-08T21:20:27.217Z,95633.19
2023-05-08T21:22:55.235Z,95635.56
2023-05-08T21:25:23.562Z,95640.09
2023-05-08T21:27:55.151Z,95629.03
2023-05-08T21:30:23.246Z,95623.44
2023-05-08T21:32:51.330Z,95630.56
2023-05-08T21:35:19.218Z,95614.31
2023-05-08T21:37:46.998Z,95614.88
2023-05-08T21:40:14.818Z,95611.72
2023-05-08T21:42:42.580Z,95604.72
2023-05-08T21:45:12.856Z,95601.09
2023-05-08T21:47:40.909Z,95598.09
2023-05-08T21:50:10.045Z,95599.63
2023-05-08T21:52:37.938Z,95590.63
2023-05-08T21:55:08.664Z,95597.94
2023-05-08T21:57:36.600Z,95600.94
2023-05-08T22:00:05.793Z,95594.41
2023-05-08T22:02:37.897Z,95590.84
2023-05-08T22:05:07.541Z,95588.06
2023-05-08T22:07:35.614Z,95584.25
2023-05-08T22:10:03.976Z,95579.69
2023-05-08T22:12:31.961Z,95582.84
2023-05-08T22:14:59.757Z,95581.03
2023-05-08T22:17:27.666Z,95582.00
2023-05-08T22:19:56.901Z,95577.44
2023-05-08T22:22:24.787Z,95573.31
2023-05-08T22:24:52.749Z,95579.06
2023-05-08T22:27:20.499Z,95572.59
2023-05-08T22:29:48.337Z,95576.69
2023-05-08T22:32:16.247Z,95580.28
2023-05-08T22:34:44.113Z,95574.91
2023-05-08T22:37:13.268Z,95581.81
2023-05-08T22:39:41.050Z,95578.81
2023-05-08T22:42:08.850Z,95582.50
2023-05-08T22:44:37.778Z,95574.19
2023-05-08T22:47:06.194Z,95589.78
2023-05-08T22:49:34.634Z,95578.47
2023-05-08T22:52:02.471Z,95586.09
2023-05-08T22:54:31.636Z,95576.72
2023-05-08T22:56:59.507Z,95585.47
2023-05-08T22:59:27.771Z,95583.44
2023-05-08T23:01:55.610Z,95586.81
2023-05-08T23:04:23.434Z,95591.16
2023-05-08T23:06:51.215Z,95592.91
2023-05-08T23:09:19.025Z,95598.50
2023-05-08T23:11:49.683Z,95578.34
2023-05-08T23:14:17.470Z,95595.41
2023-05-08T23:16:45.349Z,95583.50
2023-05-08T23:19:13.241Z,95576.56
2023-05-08T23:21:41.402Z,95580.94
2023-05-08T23:24:09.483Z,95580.50
2023-05-08T23:26:37.375Z,95582.47
2023-05-08T23:29:06.581Z,95573.38
2023-05-08T23:31:34.406Z,95575.13
2023-05-08T23:34:02.300Z,95572.56
2023-05-08T23:36:30.154Z,95566.03
2023-05-08T23:38:58.011Z,95552.16
2023-05-08T23:41:26.551Z,95562.31
2023-05-08T23:43:54.739Z,95547.66
2023-05-08T23:46:24.031Z,95549.63
2023-05-08T23:48:52.025Z,95554.94
2023-05-08T23:51:19.927Z,95546.03
2023-05-08T23:53:48.186Z,95539.69
2023-05-08T23:56:16.138Z,95545.44
2023-05-08T23:58:43.987Z,95534.72
